createdAt,value
2022-11-16T06:24:02.803Z,16.93
2022-11-16T06:26:30.870Z,16.60
2022-11-16T06:28:58.283Z,16.40
2022-11-16T06:31:26.038Z,17.77
2022-11-16T06:33:55.151Z,17.10
2022-11-16T06:36:26.224Z,17.70
2022-11-16T06:38:54.363Z,17.10
2022-11-16T06:41:22.969Z,17.50
2022-11-16T06:43:54.041Z,16.77
2022-11-16T06:46:26.273Z,16.93
2022-11-16T06:48:54.465Z,17.37
2022-11-16T06:51:22.364Z,17.60
2022-11-16T06:53:49.866Z,17.13
2022-11-16T06:56:17.493Z,16.80
2022-11-16T06:58:53.543Z,16.73
2022-11-16T07:01:21.610Z,16.80
2022-11-16T07:03:51.358Z,16.67
2022-11-16T07:06:19.014Z,16.60
2022-11-16T07:08:47.805Z,17.63
2022-11-16T07:11:20.374Z,17.63
2022-11-16T07:13:49.285Z,18.03
2022-11-16T07:16:17.151Z,17.73
2022-11-16T07:18:51.792Z,17.03
2022-11-16T07:21:19.601Z,16.90
2022-11-16T07:23:47.397Z,16.77
2022-11-16T07:26:19.637Z,17.17
2022-11-16T07:28:53.282Z,17.60
2022-11-16T07:31:22.778Z,18.67
2022-11-16T07:34:10.010Z,17.00
2022-11-16T07:36:48.103Z,17.73
2022-11-16T07:40:08.636Z,17.10
2022-11-16T07:42:38.655Z,17.93
2022-11-16T07:45:13.692Z,16.87
2022-11-16T07:47:52.358Z,19.07
2022-11-16T07:50:37.180Z,18.97
2022-11-16T07:53:07.645Z,18.67
2022-11-16T07:55:35.411Z,17.90
2022-11-16T07:58:03.474Z,18.63
2022-11-16T08:00:30.961Z,18.27
2022-11-16T08:03:08.269Z,18.67
2022-11-16T08:05:36.218Z,18.17
2022-11-16T08:08:03.539Z,18.13
2022-11-16T08:10:33.890Z,18.50
2022-11-16T08:13:01.475Z,18.37
2022-11-16T08:15:29.564Z,18.20
2022-11-16T08:18:00.296Z,17.80
2022-11-16T08:20:29.060Z,17.60
2022-11-16T08:23:01.111Z,18.23
2022-11-16T08:25:32.429Z,17.63
2022-11-16T08:27:59.984Z,18.50
2022-11-16T08:30:27.549Z,17.73
2022-11-16T08:32:55.481Z,16.67
2022-11-16T08:35:23.421Z,16.53
2022-11-16T08:40:37.191Z,15.20
2022-11-16T08:43:05.624Z,15.13
2022-11-16T08:45:34.246Z,14.57
2022-11-16T08:48:05.047Z,14.67
2022-11-16T08:50:55.474Z,14.23
2022-11-16T08:53:23.904Z,13.70
2022-11-16T08:55:51.515Z,14.63
2022-11-16T08:58:19.138Z,13.53
2022-11-16T09:00:46.499Z,12.83
2022-11-16T09:03:14.039Z,12.63
2022-11-16T09:05:42.585Z,13.03
2022-11-16T09:08:09.970Z,12.23
2022-11-16T09:10:38.456Z,12.30
2022-11-16T09:13:05.747Z,12.43
2022-11-16T09:15:33.191Z,10.80
2022-11-16T09:18:00.562Z,10.23
2022-11-16T09:20:27.919Z,9.50
2022-11-16T09:22:55.376Z,9.20
2022-11-16T09:25:23.652Z,8.80
2022-11-16T09:27:51.044Z,9.03
2022-11-16T09:30:18.487Z,8.90
2022-11-16T09:32:45.785Z,8.20
2022-11-16T09:35:13.157Z,8.37
2022-11-16T09:37:40.608Z,8.40
2022-11-16T09:40:12.125Z,8.57
2022-11-16T09:42:59.245Z,8.47
2022-11-16T09:45:30.931Z,7.73
2022-11-16T09:48:01.564Z,8.80
2022-11-16T09:50:35.243Z,9.10
2022-11-16T09:53:08.541Z,9.30
2022-11-16T09:55:40.890Z,8.00
2022-11-16T09:58:16.575Z,8.17
2022-11-16T10:00:45.463Z,9.10
2022-11-16T10:03:14.323Z,9.17
2022-11-16T10:05:45.566Z,8.33
2022-11-16T10:08:19.203Z,8.00
2022-11-16T10:11:06.851Z,7.97
2022-11-16T10:13:40.715Z,7.53
2022-11-16T10:16:19.759Z,8.10
2022-11-16T10:18:53.173Z,7.83
2022-11-16T10:21:30.057Z,9.20
2022-11-16T10:24:06.452Z,7.97
2022-11-16T10:26:59.957Z,8.00
2022-11-16T10:29:35.087Z,7.40
2022-11-16T10:32:07.429Z,7.40
2022-11-16T10:34:43.923Z,7.57
2022-11-16T10:37:14.062Z,7.13
2022-11-16T10:39:41.935Z,6.87
2022-11-16T10:42:16.566Z,7.75
2022-11-16T10:44:48.484Z,7.07
2022-11-16T10:47:27.125Z,6.80
2022-11-16T10:50:00.596Z,6.50
2022-11-16T10:52:28.585Z,6.97
2022-11-16T10:54:58.467Z,6.90
2022-11-16T10:57:26.591Z,7.20
2022-11-16T10:59:55.663Z,6.13
2022-11-16T11:02:26.051Z,6.13
2022-11-16T11:05:16.577Z,6.13
2022-11-16T11:07:54.066Z,5.70
2022-11-16T11:10:30.564Z,5.50
2022-11-16T11:13:04.003Z,5.73
2022-11-16T11:15:34.068Z,5.97
2022-11-16T11:18:25.407Z,6.17
2022-11-16T11:20:58.766Z,6.00
2022-11-16T11:23:26.788Z,5.77
2022-11-16T11:26:01.042Z,5.70
2022-11-16T11:28:32.611Z,5.80
2022-11-16T11:31:02.867Z,5.23
2022-11-16T11:33:32.160Z,5.40
2022-11-16T11:36:02.198Z,5.33
2022-11-16T11:38:29.830Z,5.00
2022-11-16T11:40:58.787Z,5.50
2022-11-16T11:43:26.575Z,5.03
2022-11-16T11:46:04.945Z,4.87
2022-11-16T11:48:38.027Z,5.00
2022-11-16T11:51:17.545Z,5.07
2022-11-16T11:53:53.208Z,4.60
2022-11-16T11:56:22.010Z,4.37
2022-11-16T11:58:49.919Z,5.00
2022-11-16T12:01:28.539Z,4.50
2022-11-16T12:04:08.518Z,4.97
2022-11-16T12:06:59.421Z,4.90
2022-11-16T12:09:35.894Z,3.37
2022-11-16T12:12:36.952Z,3.80
2022-11-16T12:15:28.227Z,3.90
2022-11-16T12:18:12.835Z,3.87
2022-11-16T12:20:58.704Z,3.67
2022-11-16T12:23:28.737Z,3.67
2022-11-16T12:26:19.383Z,4.60
2022-11-16T12:29:05.547Z,5.10
2022-11-16T12:31:32.839Z,3.10
2022-11-16T12:34:18.603Z,3.17
2022-11-16T12:36:56.038Z,4.60
2022-11-16T12:39:52.749Z,4.70
2022-11-16T12:42:19.996Z,4.03
2022-11-16T12:45:05.986Z,3.97
2022-11-16T12:47:47.645Z,4.37
2022-11-16T12:50:20.877Z,4.20
2022-11-16T12:52:48.356Z,4.00
2022-11-16T12:55:28.263Z,4.10
2022-11-16T12:58:07.994Z,4.10
2022-11-16T13:00:45.284Z,4.03
2022-11-16T13:03:12.901Z,4.50
2022-11-16T13:05:42.881Z,4.50
2022-11-16T13:08:28.584Z,5.70
2022-11-16T13:11:11.275Z,6.00
2022-11-16T13:13:40.071Z,5.90
2022-11-16T13:16:07.877Z,5.63
2022-11-16T13:18:39.601Z,6.13
2022-11-16T13:21:18.106Z,5.80
2022-11-16T13:23:50.654Z,6.00
2022-11-16T13:26:17.972Z,5.50
2022-11-16T13:29:06.083Z,5.43
2022-11-16T13:31:33.441Z,4.97
2022-11-16T13:34:13.855Z,4.50
2022-11-16T13:36:47.959Z,7.70
2022-11-16T13:39:22.688Z,5.80
2022-11-16T13:41:52.566Z,4.57
2022-11-16T13:44:20.575Z,4.70
2022-11-16T13:46:55.762Z,5.37
2022-11-16T13:49:31.371Z,6.23
2022-11-16T13:52:11.566Z,6.73
2022-11-16T13:54:50.179Z,7.17
2022-11-16T13:57:23.218Z,6.17
2022-11-16T13:59:52.945Z,6.47
2022-11-16T14:02:36.767Z,7.00
2022-11-16T14:05:10.033Z,7.10
2022-11-16T14:07:48.243Z,7.90
2022-11-16T14:10:38.721Z,8.43
2022-11-16T14:13:06.656Z,8.30
2022-11-16T14:15:38.680Z,8.47
2022-11-16T14:18:09.446Z,6.63
2022-11-16T14:20:44.220Z,8.00
2022-11-16T14:23:24.689Z,7.40
2022-11-16T14:25:51.966Z,7.70
2022-11-16T14:28:43.791Z,7.70
2022-11-16T14:31:22.579Z,7.43
2022-11-16T14:33:52.656Z,7.10
2022-11-16T14:36:34.552Z,7.03
2022-11-16T14:39:18.174Z,7.00
2022-11-16T14:41:47.185Z,7.80
2022-11-16T14:44:21.742Z,7.27
2022-11-16T14:46:49.281Z,7.00
2022-11-16T14:49:18.622Z,5.80
2022-11-16T14:51:47.915Z,6.03
2022-11-16T14:54:47.799Z,6.43
2022-11-16T14:57:19.565Z,8.17
2022-11-16T14:59:47.221Z,7.37
2022-11-16T15:02:23.207Z,7.90
2022-11-16T15:04:54.022Z,7.43
2022-11-16T15:07:25.446Z,6.83
2022-11-16T15:09:55.487Z,7.97
2022-11-16T15:12:43.142Z,8.03
2022-11-16T15:15:15.795Z,8.00
2022-11-16T15:17:44.703Z,8.77
2022-11-16T15:20:17.605Z,7.40
2022-11-16T15:22:46.698Z,7.63
2022-11-16T15:25:32.974Z,9.13
2022-11-16T15:28:01.423Z,8.97
2022-11-16T15:30:32.493Z,6.80
2022-11-16T15:32:59.974Z,9.00
2022-11-16T15:35:31.825Z,8.90
2022-11-16T15:38:01.998Z,10.13
2022-11-16T15:40:53.458Z,9.57
2022-11-16T15:43:30.859Z,8.77
2022-11-16T15:45:59.638Z,9.67
2022-11-16T15:48:28.524Z,11.03
2022-11-16T15:51:01.534Z,11.30
2022-11-16T15:53:39.566Z,9.80
2022-11-16T15:56:08.847Z,9.17
2022-11-16T15:58:40.590Z,9.43
2022-11-16T16:01:10.202Z,8.83
2022-11-16T16:03:38.044Z,9.40
2022-11-16T16:06:06.468Z,9.83
2022-11-16T16:08:42.071Z,9.00
2022-11-16T16:11:09.514Z,8.43
2022-11-16T16:13:38.648Z,8.77
2022-11-16T16:16:25.667Z,7.00
2022-11-16T16:18:54.266Z,7.03
2022-11-16T16:21:21.805Z,6.93
2022-11-16T16:27:53.384Z,7.67
2022-11-16T16:30:24.554Z,5.73
2022-11-16T16:32:53.038Z,7.47
2022-11-16T16:35:21.711Z,8.10
2022-11-16T16:37:52.905Z,7.50
2022-11-16T16:40:20.931Z,8.47
2022-11-16T16:42:48.646Z,6.60
2022-11-16T16:45:20.711Z,6.67
2022-11-16T16:47:52.464Z,5.87
2022-11-16T16:50:19.989Z,4.67
2022-11-16T16:52:50.707Z,5.03
2022-11-16T16:55:42.862Z,5.97
2022-11-16T16:58:13.785Z,6.40
2022-11-16T17:00:45.466Z,6.10
2022-11-16T17:03:14.947Z,5.30
2022-11-16T17:05:44.554Z,5.53
2022-11-16T17:08:12.674Z,5.50
2022-11-16T17:14:18.640Z,5.20
2022-11-16T17:16:46.100Z,6.10
2022-11-16T17:19:14.931Z,5.77
2022-11-16T17:21:44.044Z,4.27
2022-11-16T17:24:11.925Z,4.03
2022-11-16T17:26:39.938Z,3.40
2022-11-16T17:29:08.678Z,3.67
2022-11-16T17:31:37.725Z,3.57
2022-11-16T17:34:13.585Z,3.80
2022-11-16T17:36:46.300Z,3.70
2022-11-16T17:39:16.318Z,3.77
2022-11-16T17:41:45.998Z,4.50
2022-11-16T17:44:20.183Z,5.17
2022-11-16T17:46:48.985Z,5.70
2022-11-16T17:49:16.367Z,6.60
2022-11-16T17:51:44.434Z,5.37
2022-11-16T17:54:17.110Z,5.30
2022-11-16T17:56:45.820Z,5.00
2022-11-16T17:59:13.086Z,5.43
2022-11-16T18:01:41.894Z,6.33
2022-11-16T18:04:09.345Z,6.50
2022-11-16T18:06:36.915Z,7.10
2022-11-16T18:09:04.272Z,6.33
2022-11-16T18:11:31.631Z,7.03
2022-11-16T18:14:00.646Z,8.20
2022-11-16T18:16:29.303Z,7.23
2022-11-16T18:19:00.895Z,7.50
2022-11-16T18:21:28.627Z,5.50
2022-11-16T18:24:01.167Z,5.40
2022-11-16T18:27:19.095Z,5.07
2022-11-16T18:29:46.647Z,4.73
2022-11-16T18:32:14.213Z,4.87
2022-11-16T18:34:41.684Z,4.20
2022-11-16T18:37:10.875Z,3.73
2022-11-16T18:39:38.193Z,4.10
2022-11-16T18:42:06.047Z,3.87
2022-11-16T18:44:33.301Z,3.90
2022-11-16T18:47:02.636Z,4.20
2022-11-16T18:49:30.266Z,3.73
2022-11-16T18:52:02.275Z,4.13
2022-11-16T18:54:32.074Z,4.13
2022-11-16T18:56:59.869Z,4.13
2022-11-16T18:59:27.206Z,4.37
2022-11-16T19:01:54.714Z,4.43
2022-11-16T19:04:22.000Z,4.10
2022-11-16T19:06:50.151Z,4.50
2022-11-16T19:09:17.645Z,4.30
2022-11-16T19:12:17.781Z,4.33
2022-11-16T19:14:46.822Z,4.87
2022-11-16T19:17:15.083Z,4.57
2022-11-16T19:19:42.696Z,4.77
2022-11-16T19:22:30.359Z,5.43
2022-11-16T19:25:01.724Z,5.23
2022-11-16T19:27:35.036Z,5.67
2022-11-16T19:30:04.838Z,5.33
2022-11-16T19:32:32.233Z,5.90
2022-11-16T19:35:02.119Z,5.70
2022-11-16T19:37:32.533Z,6.60
2022-11-16T19:40:03.068Z,6.37
2022-11-16T19:42:32.890Z,7.20
2022-11-16T19:45:06.027Z,7.00
2022-11-16T19:47:34.234Z,6.90
2022-11-16T19:50:06.266Z,7.40
2022-11-16T19:52:36.319Z,7.40
2022-11-16T19:55:03.661Z,7.67
2022-11-16T19:57:32.276Z,7.47
2022-11-16T20:00:01.298Z,7.57
2022-11-16T20:02:29.731Z,8.13
2022-11-16T20:04:57.213Z,8.63
2022-11-16T20:07:24.683Z,8.83
2022-11-16T20:09:54.760Z,8.93
2022-11-16T20:12:24.168Z,9.03
2022-11-16T20:14:55.801Z,8.73
2022-11-16T20:17:24.072Z,9.17
2022-11-16T20:19:51.946Z,9.53
2022-11-16T20:22:20.962Z,9.07
2022-11-16T20:24:50.794Z,9.90
2022-11-16T20:27:37.765Z,10.40
2022-11-16T20:30:09.765Z,10.90
2022-11-16T20:32:38.295Z,10.30
2022-11-16T20:35:06.066Z,10.50
2022-11-16T20:37:39.008Z,10.40
2022-11-16T20:40:06.633Z,11.40
2022-11-16T20:42:34.039Z,10.40
2022-11-16T20:45:01.386Z,11.00
2022-11-16T20:47:31.197Z,11.57
2022-11-16T20:49:59.612Z,11.50
2022-11-16T20:52:26.995Z,11.40
2022-11-16T20:54:54.294Z,11.73
2022-11-16T20:57:22.190Z,11.47
2022-11-16T20:59:49.666Z,11.73
2022-11-16T21:02:16.953Z,12.30
2022-11-16T21:04:44.895Z,11.67
2022-11-16T21:07:12.271Z,12.43
2022-11-16T21:09:59.734Z,11.30
2022-11-16T21:12:45.860Z,12.50
2022-11-16T21:15:14.324Z,12.20
2022-11-16T21:17:41.736Z,12.00
2022-11-16T21:22:56.599Z,12.70
2022-11-16T21:25:24.343Z,12.27
2022-11-16T21:27:51.625Z,12.40
2022-11-16T21:30:19.015Z,11.63
2022-11-16T21:32:46.687Z,12.00
2022-11-16T21:35:14.005Z,11.80
2022-11-16T21:37:41.405Z,11.77
2022-11-16T21:40:14.678Z,12.03
2022-11-16T21:42:43.206Z,11.20
2022-11-16T21:45:13.237Z,11.63
2022-11-16T21:47:40.630Z,11.17
2022-11-16T21:50:30.696Z,10.80
2022-11-16T21:52:56.650Z,10.87
2022-11-16T21:55:26.929Z,10.60
2022-11-16T21:57:54.220Z,10.60
2022-11-16T22:00:21.966Z,10.87
2022-11-16T22:02:49.246Z,10.53
2022-11-16T22:05:55.007Z,10.17
2022-11-16T22:08:22.493Z,11.00
2022-11-16T22:10:51.176Z,10.33
2022-11-16T22:13:19.142Z,9.73
2022-11-16T22:15:46.778Z,10.30
2022-11-16T22:18:14.154Z,9.30
2022-11-16T22:20:43.612Z,9.37
2022-11-16T22:23:11.436Z,9.10
2022-11-16T22:25:39.194Z,8.50
2022-11-16T22:28:25.469Z,8.03
2022-11-16T22:30:59.933Z,7.73
2022-11-16T22:33:28.194Z,7.80
2022-11-16T22:35:55.635Z,7.73
2022-11-16T22:38:32.420Z,6.80
2022-11-16T22:41:02.355Z,6.90
2022-11-16T22:43:34.055Z,6.77
2022-11-16T22:46:04.643Z,6.73
2022-11-16T22:48:40.076Z,6.83
2022-11-16T22:51:09.772Z,6.60
2022-11-16T22:53:40.038Z,6.77
2022-11-16T22:56:12.356Z,6.73
2022-11-16T22:58:40.675Z,6.33
2022-11-16T23:01:09.788Z,6.47
2022-11-16T23:03:38.262Z,5.80
2022-11-16T23:06:07.986Z,6.60
2022-11-16T23:08:36.062Z,6.00
2022-11-16T23:11:23.902Z,5.70
2022-11-16T23:14:10.563Z,6.03
2022-11-16T23:16:40.894Z,5.47
2022-11-16T23:19:32.429Z,5.40
2022-11-16T23:22:18.959Z,5.20
2022-11-16T23:25:05.335Z,5.50
2022-11-16T23:27:41.576Z,5.40
2022-11-16T23:30:12.823Z,5.27
